METAR Data
IDs: Format: Raw Decoded Include TAF

Data at: 0241 UTC 31 May 2023

NZWN 310230Z AUTO 35012KT 9999 NCD 16/07 Q1010
NZWN 310200Z AUTO 36015KT 9999 NCD 16/08 Q1010
NZWN 310130Z AUTO 35012KT 310V020 9999 NCD 16/08 Q1011
NZWN 310100Z AUTO 35013KT 9999 NCD 16/07 Q1011
NZWN 310030Z AUTO 36013KT 9999 NCD 16/07 Q1011
NZWN 310000Z AUTO 36014KT 9999 NCD 16/08 Q1011

TAF NZWN 310208Z 3103/0106 36015G25KT 9999 FEW025
  BECMG 3108/3110 36012KT
  BECMG 3122/0100 36015G25KT